sensor_id;sensor_type;location;lat;lon;timestamp;temperature;humidity
68257;DHT22;55069;51.568;4.656;2024-02-26T00:02:15;6.98;87.37
68257;DHT22;55069;51.568;4.656;2024-02-26T00:04:40;6.95;87.60
68257;DHT22;55069;51.568;4.656;2024-02-26T00:07:06;7.01;86.88
68257;DHT22;55069;51.568;4.656;2024-02-26T00:09:32;7.04;86.32
68257;DHT22;55069;51.568;4.656;2024-02-26T00:12:01;7.05;86.31
68257;DHT22;55069;51.568;4.656;2024-02-26T00:14:27;7.05;86.23
68257;DHT22;55069;51.568;4.656;2024-02-26T00:16:52;7.02;86.50
68257;DHT22;55069;51.568;4.656;2024-02-26T00:19:17;7.02;86.30
68257;DHT22;55069;51.568;4.656;2024-02-26T00:21:43;6.97;86.59
68257;DHT22;55069;51.568;4.656;2024-02-26T00:24:09;6.99;86.79
68257;DHT22;55069;51.568;4.656;2024-02-26T00:26:34;7.02;86.92
68257;DHT22;55069;51.568;4.656;2024-02-26T00:29:00;6.95;87.18
68257;DHT22;55069;51.568;4.656;2024-02-26T00:31:25;6.91;87.32
68257;DHT22;55069;51.568;4.656;2024-02-26T00:33:51;6.89;87.31
68257;DHT22;55069;51.568;4.656;2024-02-26T00:36:16;6.85;87.13
68257;DHT22;55069;51.568;4.656;2024-02-26T00:38:42;6.84;87.32
68257;DHT22;55069;51.568;4.656;2024-02-26T00:41:10;6.81;87.55
68257;DHT22;55069;51.568;4.656;2024-02-26T00:43:35;6.78;87.40
68257;DHT22;55069;51.568;4.656;2024-02-26T00:46:03;6.78;87.30
68257;DHT22;55069;51.568;4.656;2024-02-26T00:48:28;6.83;87.27
68257;DHT22;55069;51.568;4.656;2024-02-26T00:50:54;6.84;86.92
68257;DHT22;55069;51.568;4.656;2024-02-26T00:53:19;6.85;87.32
68257;DHT22;55069;51.568;4.656;2024-02-26T00:55:45;6.83;87.36
68257;DHT22;55069;51.568;4.656;2024-02-26T00:58:10;6.84;87.34
68257;DHT22;55069;51.568;4.656;2024-02-26T01:00:36;6.71;88.22
68257;DHT22;55069;51.568;4.656;2024-02-26T01:03:01;6.74;88.72
68257;DHT22;55069;51.568;4.656;2024-02-26T01:05:28;6.76;88.49
68257;DHT22;55069;51.568;4.656;2024-02-26T01:07:54;6.77;88.05
68257;DHT22;55069;51.568;4.656;2024-02-26T01:10:19;6.70;88.36
68257;DHT22;55069;51.568;4.656;2024-02-26T01:12:45;6.68;88.24
68257;DHT22;55069;51.568;4.656;2024-02-26T01:15:10;6.68;88.76
68257;DHT22;55069;51.568;4.656;2024-02-26T01:17:36;6.64;88.60
68257;DHT22;55069;51.568;4.656;2024-02-26T01:20:01;6.63;89.05
68257;DHT22;55069;51.568;4.656;2024-02-26T01:22:27;6.61;88.61
68257;DHT22;55069;51.568;4.656;2024-02-26T01:24:52;6.64;88.57
68257;DHT22;55069;51.568;4.656;2024-02-26T01:27:18;6.60;88.66
68257;DHT22;55069;51.568;4.656;2024-02-26T01:29:44;6.64;88.70
68257;DHT22;55069;51.568;4.656;2024-02-26T01:32:10;6.63;88.56
68257;DHT22;55069;51.568;4.656;2024-02-26T01:34:35;6.66;88.58
68257;DHT22;55069;51.568;4.656;2024-02-26T01:37:02;6.63;88.79
68257;DHT22;55069;51.568;4.656;2024-02-26T01:39:28;6.63;88.77
68257;DHT22;55069;51.568;4.656;2024-02-26T01:41:55;6.64;88.39
68257;DHT22;55069;51.568;4.656;2024-02-26T01:44:21;6.73;88.43
68257;DHT22;55069;51.568;4.656;2024-02-26T01:46:47;6.73;88.50
68257;DHT22;55069;51.568;4.656;2024-02-26T01:49:13;6.71;89.17
68257;DHT22;55069;51.568;4.656;2024-02-26T01:51:39;6.67;88.72
68257;DHT22;55069;51.568;4.656;2024-02-26T01:54:06;6.70;89.39
68257;DHT22;55069;51.568;4.656;2024-02-26T01:56:34;6.67;90.01
68257;DHT22;55069;51.568;4.656;2024-02-26T01:59:01;6.68;89.79
68257;DHT22;55069;51.568;4.656;2024-02-26T02:01:27;6.64;90.47
68257;DHT22;55069;51.568;4.656;2024-02-26T02:03:56;6.58;90.75
68257;DHT22;55069;51.568;4.656;2024-02-26T02:06:23;6.57;90.94
68257;DHT22;55069;51.568;4.656;2024-02-26T02:08:49;6.54;91.49
68257;DHT22;55069;51.568;4.656;2024-02-26T02:11:14;6.53;91.46
68257;DHT22;55069;51.568;4.656;2024-02-26T02:13:40;6.49;92.03
68257;DHT22;55069;51.568;4.656;2024-02-26T02:16:06;6.44;92.36
68257;DHT22;55069;51.568;4.656;2024-02-26T02:18:33;6.37;92.92
68257;DHT22;55069;51.568;4.656;2024-02-26T02:21:00;6.43;93.16
68257;DHT22;55069;51.568;4.656;2024-02-26T02:23:26;6.39;93.37
68257;DHT22;55069;51.568;4.656;2024-02-26T02:25:52;6.36;93.69
68257;DHT22;55069;51.568;4.656;2024-02-26T02:28:17;6.32;93.88
68257;DHT22;55069;51.568;4.656;2024-02-26T02:30:43;6.26;94.53
68257;DHT22;55069;51.568;4.656;2024-02-26T02:33:09;6.26;94.55
68257;DHT22;55069;51.568;4.656;2024-02-26T02:35:36;6.23;94.99
68257;DHT22;55069;51.568;4.656;2024-02-26T02:38:02;6.22;95.28
68257;DHT22;55069;51.568;4.656;2024-02-26T02:40:28;6.18;95.43
68257;DHT22;55069;51.568;4.656;2024-02-26T02:42:53;6.16;95.78
68257;DHT22;55069;51.568;4.656;2024-02-26T02:45:19;6.11;95.95
68257;DHT22;55069;51.568;4.656;2024-02-26T02:47:44;6.02;96.11
68257;DHT22;55069;51.568;4.656;2024-02-26T02:50:10;6.03;96.15
68257;DHT22;55069;51.568;4.656;2024-02-26T02:52:35;5.97;96.44
68257;DHT22;55069;51.568;4.656;2024-02-26T02:55:01;5.92;96.67
68257;DHT22;55069;51.568;4.656;2024-02-26T02:57:27;5.87;96.74
68257;DHT22;55069;51.568;4.656;2024-02-26T02:59:52;5.85;96.86
68257;DHT22;55069;51.568;4.656;2024-02-26T03:02:18;5.78;97.15
68257;DHT22;55069;51.568;4.656;2024-02-26T03:04:43;5.79;97.23
68257;DHT22;55069;51.568;4.656;2024-02-26T03:07:09;5.71;97.46
68257;DHT22;55069;51.568;4.656;2024-02-26T03:09:34;5.71;97.46
68257;DHT22;55069;51.568;4.656;2024-02-26T03:12:00;5.71;97.52
68257;DHT22;55069;51.568;4.656;2024-02-26T03:14:25;5.65;97.61
68257;DHT22;55069;51.568;4.656;2024-02-26T03:16:54;5.65;97.69
68257;DHT22;55069;51.568;4.656;2024-02-26T03:19:20;5.64;97.62
68257;DHT22;55069;51.568;4.656;2024-02-26T03:21:46;5.60;97.62
68257;DHT22;55069;51.568;4.656;2024-02-26T03:24:11;5.54;97.68
68257;DHT22;55069;51.568;4.656;2024-02-26T03:26:38;5.54;97.74
68257;DHT22;55069;51.568;4.656;2024-02-26T03:29:04;5.51;97.68
68257;DHT22;55069;51.568;4.656;2024-02-26T03:31:29;5.46;97.90
68257;DHT22;55069;51.568;4.656;2024-02-26T03:33:55;5.44;97.68
68257;DHT22;55069;51.568;4.656;2024-02-26T03:36:20;5.40;97.96
68257;DHT22;55069;51.568;4.656;2024-02-26T03:38:47;5.36;97.76
68257;DHT22;55069;51.568;4.656;2024-02-26T03:41:13;5.36;97.90
68257;DHT22;55069;51.568;4.656;2024-02-26T03:43:39;5.36;98.04
68257;DHT22;55069;51.568;4.656;2024-02-26T03:46:08;5.37;97.97
68257;DHT22;55069;51.568;4.656;2024-02-26T03:48:40;5.36;97.90
68257;DHT22;55069;51.568;4.656;2024-02-26T03:51:05;5.32;98.07
68257;DHT22;55069;51.568;4.656;2024-02-26T03:53:31;5.32;98.08
68257;DHT22;55069;51.568;4.656;2024-02-26T03:55:56;5.29;98.09
68257;DHT22;55069;51.568;4.656;2024-02-26T03:58:22;5.27;98.11
68257;DHT22;55069;51.568;4.656;2024-02-26T04:00:48;5.29;98.06
68257;DHT22;55069;51.568;4.656;2024-02-26T04:03:13;5.25;98.06
68257;DHT22;55069;51.568;4.656;2024-02-26T04:05:39;5.23;97.99
68257;DHT22;55069;51.568;4.656;2024-02-26T04:08:05;5.23;98.12
68257;DHT22;55069;51.568;4.656;2024-02-26T04:10:33;5.25;98.18
68257;DHT22;55069;51.568;4.656;2024-02-26T04:13:00;5.23;98.27
68257;DHT22;55069;51.568;4.656;2024-02-26T04:15:26;5.26;98.21
68257;DHT22;55069;51.568;4.656;2024-02-26T04:17:51;5.29;98.19
68257;DHT22;55069;51.568;4.656;2024-02-26T04:20:17;5.23;98.23
68257;DHT22;55069;51.568;4.656;2024-02-26T04:22:43;5.23;98.23
68257;DHT22;55069;51.568;4.656;2024-02-26T04:25:08;5.19;98.11
68257;DHT22;55069;51.568;4.656;2024-02-26T04:27:34;5.20;98.14
68257;DHT22;55069;51.568;4.656;2024-02-26T04:29:59;5.19;98.05
68257;DHT22;55069;51.568;4.656;2024-02-26T04:32:25;5.20;98.02
68257;DHT22;55069;51.568;4.656;2024-02-26T04:34:50;5.22;97.97
68257;DHT22;55069;51.568;4.656;2024-02-26T04:37:16;5.26;97.75
68257;DHT22;55069;51.568;4.656;2024-02-26T04:39:41;5.22;97.91
68257;DHT22;55069;51.568;4.656;2024-02-26T04:42:07;5.25;98.11
68257;DHT22;55069;51.568;4.656;2024-02-26T04:44:32;5.23;98.10
68257;DHT22;55069;51.568;4.656;2024-02-26T04:46:58;5.22;97.95
68257;DHT22;55069;51.568;4.656;2024-02-26T04:49:23;5.19;98.08
68257;DHT22;55069;51.568;4.656;2024-02-26T04:51:49;5.18;97.83
68257;DHT22;55069;51.568;4.656;2024-02-26T04:54:15;5.22;97.97
68257;DHT22;55069;51.568;4.656;2024-02-26T04:56:41;5.16;97.87
68257;DHT22;55069;51.568;4.656;2024-02-26T04:59:06;5.19;98.12
68257;DHT22;55069;51.568;4.656;2024-02-26T05:01:32;5.19;98.01
68257;DHT22;55069;51.568;4.656;2024-02-26T05:03:57;5.19;97.99
68257;DHT22;55069;51.568;4.656;2024-02-26T05:06:23;5.18;98.06
68257;DHT22;55069;51.568;4.656;2024-02-26T05:08:48;5.18;97.99
68257;DHT22;55069;51.568;4.656;2024-02-26T05:11:14;5.18;97.97
68257;DHT22;55069;51.568;4.656;2024-02-26T05:13:39;5.16;97.87
68257;DHT22;55069;51.568;4.656;2024-02-26T05:16:05;5.18;98.06
68257;DHT22;55069;51.568;4.656;2024-02-26T05:18:31;5.20;97.96
68257;DHT22;55069;51.568;4.656;2024-02-26T05:20:56;5.23;97.73
68257;DHT22;55069;51.568;4.656;2024-02-26T05:23:22;5.22;97.62
68257;DHT22;55069;51.568;4.656;2024-02-26T05:25:48;5.22;97.60
68257;DHT22;55069;51.568;4.656;2024-02-26T05:28:14;5.18;97.71
68257;DHT22;55069;51.568;4.656;2024-02-26T05:30:42;5.20;97.56
68257;DHT22;55069;51.568;4.656;2024-02-26T05:33:07;5.20;97.54
68257;DHT22;55069;51.568;4.656;2024-02-26T05:35:33;5.20;97.36
68257;DHT22;55069;51.568;4.656;2024-02-26T05:37:58;5.23;97.42
68257;DHT22;55069;51.568;4.656;2024-02-26T05:40:24;5.23;97.27
68257;DHT22;55069;51.568;4.656;2024-02-26T05:42:49;5.20;97.24
68257;DHT22;55069;51.568;4.656;2024-02-26T05:45:15;5.20;97.21
68257;DHT22;55069;51.568;4.656;2024-02-26T05:47:40;5.22;97.10
68257;DHT22;55069;51.568;4.656;2024-02-26T05:50:11;5.23;97.09
68257;DHT22;55069;51.568;4.656;2024-02-26T05:52:37;5.20;96.90
68257;DHT22;55069;51.568;4.656;2024-02-26T05:55:04;5.19;97.12
68257;DHT22;55069;51.568;4.656;2024-02-26T05:57:31;5.23;96.94
68257;DHT22;55069;51.568;4.656;2024-02-26T05:59:57;5.20;96.60
68257;DHT22;55069;51.568;4.656;2024-02-26T06:02:26;5.23;96.91
68257;DHT22;55069;51.568;4.656;2024-02-26T06:04:51;5.25;97.06
68257;DHT22;55069;51.568;4.656;2024-02-26T06:07:17;5.23;96.87
68257;DHT22;55069;51.568;4.656;2024-02-26T06:09:42;5.22;97.02
68257;DHT22;55069;51.568;4.656;2024-02-26T06:12:08;5.22;97.06
68257;DHT22;55069;51.568;4.656;2024-02-26T06:14:33;5.23;96.82
68257;DHT22;55069;51.568;4.656;2024-02-26T06:16:59;5.20;96.84
68257;DHT22;55069;51.568;4.656;2024-02-26T06:19:24;5.19;96.79
68257;DHT22;55069;51.568;4.656;2024-02-26T06:21:50;5.19;96.82
68257;DHT22;55069;51.568;4.656;2024-02-26T06:24:16;5.19;97.11
68257;DHT22;55069;51.568;4.656;2024-02-26T06:26:41;5.20;96.84
68257;DHT22;55069;51.568;4.656;2024-02-26T06:29:07;5.20;96.74
68257;DHT22;55069;51.568;4.656;2024-02-26T06:31:32;5.22;96.70
68257;DHT22;55069;51.568;4.656;2024-02-26T06:33:58;5.20;96.85
68257;DHT22;55069;51.568;4.656;2024-02-26T06:36:23;5.19;96.83
68257;DHT22;55069;51.568;4.656;2024-02-26T06:38:49;5.22;96.60
68257;DHT22;55069;51.568;4.656;2024-02-26T06:41:15;5.19;96.79
68257;DHT22;55069;51.568;4.656;2024-02-26T06:43:40;5.13;96.71
68257;DHT22;55069;51.568;4.656;2024-02-26T06:46:06;5.15;97.06
68257;DHT22;55069;51.568;4.656;2024-02-26T06:48:32;5.12;97.02
68257;DHT22;55069;51.568;4.656;2024-02-26T06:50:58;5.16;97.07
68257;DHT22;55069;51.568;4.656;2024-02-26T06:53:23;5.12;97.41
68257;DHT22;55069;51.568;4.656;2024-02-26T06:55:49;5.12;97.27
68257;DHT22;55069;51.568;4.656;2024-02-26T06:58:15;5.15;97.30
68257;DHT22;55069;51.568;4.656;2024-02-26T07:00:41;5.13;97.29
68257;DHT22;55069;51.568;4.656;2024-02-26T07:03:06;5.13;97.47
68257;DHT22;55069;51.568;4.656;2024-02-26T07:05:32;5.13;97.52
68257;DHT22;55069;51.568;4.656;2024-02-26T07:07:57;5.13;97.09
68257;DHT22;55069;51.568;4.656;2024-02-26T07:10:23;5.16;97.43
68257;DHT22;55069;51.568;4.656;2024-02-26T07:12:48;5.19;97.54
68257;DHT22;55069;51.568;4.656;2024-02-26T07:15:14;5.18;97.66
68257;DHT22;55069;51.568;4.656;2024-02-26T07:17:40;5.19;97.61
68257;DHT22;55069;51.568;4.656;2024-02-26T07:20:08;5.16;97.41
68257;DHT22;55069;51.568;4.656;2024-02-26T07:22:34;5.18;97.40
68257;DHT22;55069;51.568;4.656;2024-02-26T07:25:00;5.19;97.35
68257;DHT22;55069;51.568;4.656;2024-02-26T07:27:25;5.19;97.32
68257;DHT22;55069;51.568;4.656;2024-02-26T07:29:50;5.19;97.34
68257;DHT22;55069;51.568;4.656;2024-02-26T07:32:16;5.18;97.39
68257;DHT22;55069;51.568;4.656;2024-02-26T07:34:41;5.20;97.40
68257;DHT22;55069;51.568;4.656;2024-02-26T07:37:10;5.20;97.36
68257;DHT22;55069;51.568;4.656;2024-02-26T07:39:36;5.16;97.45
68257;DHT22;55069;51.568;4.656;2024-02-26T07:42:02;5.16;97.33
68257;DHT22;55069;51.568;4.656;2024-02-26T07:44:28;5.18;97.37
68257;DHT22;55069;51.568;4.656;2024-02-26T07:46:53;5.18;97.27
68257;DHT22;55069;51.568;4.656;2024-02-26T07:49:18;5.13;97.02
68257;DHT22;55069;51.568;4.656;2024-02-26T07:51:44;5.13;97.26
68257;DHT22;55069;51.568;4.656;2024-02-26T07:54:09;5.13;97.28
68257;DHT22;55069;51.568;4.656;2024-02-26T07:56:35;5.13;97.43
68257;DHT22;55069;51.568;4.656;2024-02-26T07:59:01;5.13;97.30
68257;DHT22;55069;51.568;4.656;2024-02-26T08:01:26;5.16;97.65
68257;DHT22;55069;51.568;4.656;2024-02-26T08:03:53;5.18;97.48
68257;DHT22;55069;51.568;4.656;2024-02-26T08:06:18;5.13;97.63
68257;DHT22;55069;51.568;4.656;2024-02-26T08:08:44;5.12;97.43
68257;DHT22;55069;51.568;4.656;2024-02-26T08:11:09;5.13;97.75
68257;DHT22;55069;51.568;4.656;2024-02-26T08:13:35;5.16;97.70
68257;DHT22;55069;51.568;4.656;2024-02-26T08:16:01;5.16;97.53
68257;DHT22;55069;51.568;4.656;2024-02-26T08:18:29;5.15;97.73
68257;DHT22;55069;51.568;4.656;2024-02-26T08:20:55;5.15;97.77
68257;DHT22;55069;51.568;4.656;2024-02-26T08:23:21;5.16;97.76
68257;DHT22;55069;51.568;4.656;2024-02-26T08:25:46;5.15;97.80
68257;DHT22;55069;51.568;4.656;2024-02-26T08:28:11;5.18;97.71
68257;DHT22;55069;51.568;4.656;2024-02-26T08:30:38;5.18;97.96
68257;DHT22;55069;51.568;4.656;2024-02-26T08:33:04;5.15;97.79
68257;DHT22;55069;51.568;4.656;2024-02-26T08:35:29;5.19;97.50
68257;DHT22;55069;51.568;4.656;2024-02-26T08:37:55;5.19;97.63
68257;DHT22;55069;51.568;4.656;2024-02-26T08:40:21;5.16;97.79
68257;DHT22;55069;51.568;4.656;2024-02-26T08:42:46;5.16;97.84
68257;DHT22;55069;51.568;4.656;2024-02-26T08:45:12;5.15;97.70
68257;DHT22;55069;51.568;4.656;2024-02-26T08:47:38;5.15;97.93
68257;DHT22;55069;51.568;4.656;2024-02-26T08:50:04;5.19;97.86
68257;DHT22;55069;51.568;4.656;2024-02-26T08:52:30;5.18;97.63
68257;DHT22;55069;51.568;4.656;2024-02-26T08:54:56;5.19;97.80
68257;DHT22;55069;51.568;4.656;2024-02-26T08:57:22;5.20;97.91
68257;DHT22;55069;51.568;4.656;2024-02-26T08:59:48;5.20;97.90
68257;DHT22;55069;51.568;4.656;2024-02-26T09:02:14;5.23;98.05
68257;DHT22;55069;51.568;4.656;2024-02-26T09:04:40;5.19;98.10
68257;DHT22;55069;51.568;4.656;2024-02-26T09:07:05;5.23;97.93
68257;DHT22;55069;51.568;4.656;2024-02-26T09:09:31;5.20;97.95
68257;DHT22;55069;51.568;4.656;2024-02-26T09:11:57;5.25;97.63
68257;DHT22;55069;51.568;4.656;2024-02-26T09:14:22;5.29;98.16
68257;DHT22;55069;51.568;4.656;2024-02-26T09:16:48;5.30;97.76
68257;DHT22;55069;51.568;4.656;2024-02-26T09:19:14;5.29;97.86
68257;DHT22;55069;51.568;4.656;2024-02-26T09:21:44;5.34;97.85
68257;DHT22;55069;51.568;4.656;2024-02-26T09:24:11;5.32;97.89
68257;DHT22;55069;51.568;4.656;2024-02-26T09:26:37;5.37;97.57
68257;DHT22;55069;51.568;4.656;2024-02-26T09:29:02;5.33;97.90
68257;DHT22;55069;51.568;4.656;2024-02-26T09:31:29;5.37;97.89
68257;DHT22;55069;51.568;4.656;2024-02-26T09:33:55;5.37;97.65
68257;DHT22;55069;51.568;4.656;2024-02-26T09:36:20;5.39;97.60
68257;DHT22;55069;51.568;4.656;2024-02-26T09:38:47;5.36;97.40
68257;DHT22;55069;51.568;4.656;2024-02-26T09:41:14;5.43;97.54
68257;DHT22;55069;51.568;4.656;2024-02-26T09:43:44;5.39;97.54
68257;DHT22;55069;51.568;4.656;2024-02-26T09:46:10;5.42;97.39
68257;DHT22;55069;51.568;4.656;2024-02-26T09:48:37;5.42;97.50
68257;DHT22;55069;51.568;4.656;2024-02-26T09:51:03;5.42;97.64
68257;DHT22;55069;51.568;4.656;2024-02-26T09:53:29;5.44;97.77
68257;DHT22;55069;51.568;4.656;2024-02-26T09:55:57;5.44;97.65
68257;DHT22;55069;51.568;4.656;2024-02-26T09:58:24;5.44;97.65
68257;DHT22;55069;51.568;4.656;2024-02-26T10:00:56;5.47;97.93
68257;DHT22;55069;51.568;4.656;2024-02-26T10:03:28;5.47;97.95
68257;DHT22;55069;51.568;4.656;2024-02-26T10:05:56;5.47;98.11
68257;DHT22;55069;51.568;4.656;2024-02-26T10:08:23;5.44;97.97
68257;DHT22;55069;51.568;4.656;2024-02-26T10:10:49;5.51;97.69
68257;DHT22;55069;51.568;4.656;2024-02-26T10:13:15;5.50;97.93
68257;DHT22;55069;51.568;4.656;2024-02-26T10:15:41;5.50;98.08
68257;DHT22;55069;51.568;4.656;2024-02-26T10:18:06;5.48;98.06
68257;DHT22;55069;51.568;4.656;2024-02-26T10:20:32;5.50;98.26
68257;DHT22;55069;51.568;4.656;2024-02-26T10:23:02;5.48;98.29
68257;DHT22;55069;51.568;4.656;2024-02-26T10:25:27;5.46;98.28
68257;DHT22;55069;51.568;4.656;2024-02-26T10:27:53;5.46;98.29
68257;DHT22;55069;51.568;4.656;2024-02-26T10:30:20;5.44;98.28
68257;DHT22;55069;51.568;4.656;2024-02-26T10:32:48;5.44;98.37
68257;DHT22;55069;51.568;4.656;2024-02-26T10:35:15;5.44;98.39
68257;DHT22;55069;51.568;4.656;2024-02-26T10:37:41;5.50;98.42
68257;DHT22;55069;51.568;4.656;2024-02-26T10:40:16;5.46;98.20
68257;DHT22;55069;51.568;4.656;2024-02-26T10:42:42;5.43;98.31
68257;DHT22;55069;51.568;4.656;2024-02-26T10:45:09;5.44;98.19
68257;DHT22;55069;51.568;4.656;2024-02-26T10:47:40;5.43;98.19
68257;DHT22;55069;51.568;4.656;2024-02-26T10:50:06;5.43;98.19
68257;DHT22;55069;51.568;4.656;2024-02-26T10:52:33;5.40;98.24
68257;DHT22;55069;51.568;4.656;2024-02-26T10:55:04;5.37;98.22
68257;DHT22;55069;51.568;4.656;2024-02-26T10:57:35;5.42;98.28
68257;DHT22;55069;51.568;4.656;2024-02-26T11:00:03;5.37;98.37
68257;DHT22;55069;51.568;4.656;2024-02-26T11:02:33;5.37;98.29
68257;DHT22;55069;51.568;4.656;2024-02-26T11:05:02;5.36;98.35
68257;DHT22;55069;51.568;4.656;2024-02-26T11:07:30;5.33;98.13
68257;DHT22;55069;51.568;4.656;2024-02-26T11:10:00;5.33;98.41
68257;DHT22;55069;51.568;4.656;2024-02-26T11:12:28;5.34;98.37
68257;DHT22;55069;51.568;4.656;2024-02-26T11:14:55;5.34;98.51
68257;DHT22;55069;51.568;4.656;2024-02-26T11:17:27;5.30;98.39
68257;DHT22;55069;51.568;4.656;2024-02-26T11:19:55;5.29;98.41
68257;DHT22;55069;51.568;4.656;2024-02-26T11:22:21;5.32;98.42
68257;DHT22;55069;51.568;4.656;2024-02-26T11:24:52;5.32;98.39
68257;DHT22;55069;51.568;4.656;2024-02-26T11:27:19;5.32;98.41
68257;DHT22;55069;51.568;4.656;2024-02-26T11:29:51;5.33;98.36
68257;DHT22;55069;51.568;4.656;2024-02-26T11:32:18;5.30;98.24
68257;DHT22;55069;51.568;4.656;2024-02-26T11:34:44;5.34;98.61
68257;DHT22;55069;51.568;4.656;2024-02-26T11:37:14;5.34;98.66
68257;DHT22;55069;51.568;4.656;2024-02-26T11:39:43;5.39;98.38
68257;DHT22;55069;51.568;4.656;2024-02-26T11:42:14;5.37;98.38
68257;DHT22;55069;51.568;4.656;2024-02-26T11:44:40;5.40;98.66
68257;DHT22;55069;51.568;4.656;2024-02-26T11:47:18;5.40;98.29
68257;DHT22;55069;51.568;4.656;2024-02-26T11:49:44;5.34;98.10
68257;DHT22;55069;51.568;4.656;2024-02-26T11:52:10;5.37;98.31
68257;DHT22;55069;51.568;4.656;2024-02-26T11:54:43;5.42;98.34
68257;DHT22;55069;51.568;4.656;2024-02-26T11:57:27;5.46;98.17
68257;DHT22;55069;51.568;4.656;2024-02-26T12:00:28;5.46;98.20
68257;DHT22;55069;51.568;4.656;2024-02-26T12:02:52;5.44;98.28
68257;DHT22;55069;51.568;4.656;2024-02-26T12:05:23;5.47;98.17
68257;DHT22;55069;51.568;4.656;2024-02-26T12:07:55;5.51;98.00
68257;DHT22;55069;51.568;4.656;2024-02-26T12:13:06;5.54;98.28
68257;DHT22;55069;51.568;4.656;2024-02-26T12:15:42;5.57;97.97
68257;DHT22;55069;51.568;4.656;2024-02-26T12:18:09;5.61;97.74
68257;DHT22;55069;51.568;4.656;2024-02-26T12:20:39;5.65;98.39
68257;DHT22;55069;51.568;4.656;2024-02-26T12:23:04;5.61;97.92
68257;DHT22;55069;51.568;4.656;2024-02-26T12:25:31;5.64;97.99
68257;DHT22;55069;51.568;4.656;2024-02-26T12:27:57;5.67;98.12
68257;DHT22;55069;51.568;4.656;2024-02-26T12:30:23;5.67;98.25
68257;DHT22;55069;51.568;4.656;2024-02-26T12:32:51;5.63;98.06
68257;DHT22;55069;51.568;4.656;2024-02-26T12:35:17;5.60;97.77
68257;DHT22;55069;51.568;4.656;2024-02-26T12:37:46;5.58;98.00
68257;DHT22;55069;51.568;4.656;2024-02-26T12:40:12;5.61;97.87
68257;DHT22;55069;51.568;4.656;2024-02-26T12:42:38;5.60;98.17
68257;DHT22;55069;51.568;4.656;2024-02-26T12:45:09;5.65;98.40
68257;DHT22;55069;51.568;4.656;2024-02-26T12:47:42;5.68;98.11
68257;DHT22;55069;51.568;4.656;2024-02-26T12:50:09;5.70;98.15
68257;DHT22;55069;51.568;4.656;2024-02-26T12:52:37;5.67;98.12
68257;DHT22;55069;51.568;4.656;2024-02-26T12:55:05;5.65;97.89
68257;DHT22;55069;51.568;4.656;2024-02-26T12:57:36;5.73;97.99
68257;DHT22;55069;51.568;4.656;2024-02-26T13:00:03;5.68;98.28
68257;DHT22;55069;51.568;4.656;2024-02-26T13:02:30;5.65;98.05
68257;DHT22;55069;51.568;4.656;2024-02-26T13:04:57;5.71;98.28
68257;DHT22;55069;51.568;4.656;2024-02-26T13:07:23;5.68;97.96
68257;DHT22;55069;51.568;4.656;2024-02-26T13:09:49;5.73;98.04
68257;DHT22;55069;51.568;4.656;2024-02-26T13:12:16;5.73;98.19
68257;DHT22;55069;51.568;4.656;2024-02-26T13:14:41;5.70;98.05
68257;DHT22;55069;51.568;4.656;2024-02-26T13:17:07;5.67;98.17
68257;DHT22;55069;51.568;4.656;2024-02-26T13:19:33;5.65;97.83
68257;DHT22;55069;51.568;4.656;2024-02-26T13:22:06;5.64;98.18
68257;DHT22;55069;51.568;4.656;2024-02-26T13:24:35;5.65;98.05
68257;DHT22;55069;51.568;4.656;2024-02-26T13:27:02;5.70;97.74
68257;DHT22;55069;51.568;4.656;2024-02-26T13:29:30;5.67;97.89
68257;DHT22;55069;51.568;4.656;2024-02-26T13:31:57;5.75;97.97
68257;DHT22;55069;51.568;4.656;2024-02-26T13:34:29;5.77;97.85
68257;DHT22;55069;51.568;4.656;2024-02-26T13:36:56;5.74;97.79
68257;DHT22;55069;51.568;4.656;2024-02-26T13:39:26;5.78;97.89
68257;DHT22;55069;51.568;4.656;2024-02-26T13:41:52;5.79;97.73
68257;DHT22;55069;51.568;4.656;2024-02-26T13:44:19;5.77;97.86
68257;DHT22;55069;51.568;4.656;2024-02-26T13:46:45;5.81;97.71
68257;DHT22;55069;51.568;4.656;2024-02-26T13:49:10;5.81;97.95
68257;DHT22;55069;51.568;4.656;2024-02-26T13:51:37;5.75;98.15
68257;DHT22;55069;51.568;4.656;2024-02-26T13:54:03;5.81;98.08
68257;DHT22;55069;51.568;4.656;2024-02-26T13:56:30;5.84;98.01
68257;DHT22;55069;51.568;4.656;2024-02-26T13:58:56;5.82;98.10
68257;DHT22;55069;51.568;4.656;2024-02-26T14:01:21;5.81;97.86
68257;DHT22;55069;51.568;4.656;2024-02-26T14:03:47;5.82;97.74
68257;DHT22;55069;51.568;4.656;2024-02-26T14:06:12;5.81;97.77
68257;DHT22;55069;51.568;4.656;2024-02-26T14:08:38;5.82;97.61
68257;DHT22;55069;51.568;4.656;2024-02-26T14:11:03;5.88;97.82
68257;DHT22;55069;51.568;4.656;2024-02-26T14:13:29;5.88;97.86
68257;DHT22;55069;51.568;4.656;2024-02-26T14:15:54;5.87;97.65
68257;DHT22;55069;51.568;4.656;2024-02-26T14:18:20;5.91;97.80
68257;DHT22;55069;51.568;4.656;2024-02-26T14:20:45;5.84;97.37
68257;DHT22;55069;51.568;4.656;2024-02-26T14:23:11;5.85;97.65
68257;DHT22;55069;51.568;4.656;2024-02-26T14:25:37;5.87;97.59
68257;DHT22;55069;51.568;4.656;2024-02-26T14:28:02;5.87;97.76
68257;DHT22;55069;51.568;4.656;2024-02-26T14:30:28;5.84;97.77
68257;DHT22;55069;51.568;4.656;2024-02-26T14:32:54;5.81;97.43
68257;DHT22;55069;51.568;4.656;2024-02-26T14:35:20;5.82;97.40
68257;DHT22;55069;51.568;4.656;2024-02-26T14:37:46;5.85;97.73
68257;DHT22;55069;51.568;4.656;2024-02-26T14:40:13;5.84;97.53
68257;DHT22;55069;51.568;4.656;2024-02-26T14:42:39;5.84;97.08
68257;DHT22;55069;51.568;4.656;2024-02-26T14:45:05;5.85;97.37
68257;DHT22;55069;51.568;4.656;2024-02-26T14:47:37;5.88;97.21
68257;DHT22;55069;51.568;4.656;2024-02-26T14:50:04;5.90;97.38
68257;DHT22;55069;51.568;4.656;2024-02-26T14:52:30;5.88;97.11
68257;DHT22;55069;51.568;4.656;2024-02-26T14:54:56;5.88;96.96
68257;DHT22;55069;51.568;4.656;2024-02-26T14:57:24;5.85;97.55
68257;DHT22;55069;51.568;4.656;2024-02-26T14:59:49;5.87;97.05
68257;DHT22;55069;51.568;4.656;2024-02-26T15:02:16;5.90;97.10
68257;DHT22;55069;51.568;4.656;2024-02-26T15:04:43;5.84;96.84
68257;DHT22;55069;51.568;4.656;2024-02-26T15:07:09;5.87;96.77
68257;DHT22;55069;51.568;4.656;2024-02-26T15:09:35;5.85;96.83
68257;DHT22;55069;51.568;4.656;2024-02-26T15:12:00;5.85;96.82
68257;DHT22;55069;51.568;4.656;2024-02-26T15:14:26;5.87;96.85
68257;DHT22;55069;51.568;4.656;2024-02-26T15:16:52;5.84;96.74
68257;DHT22;55069;51.568;4.656;2024-02-26T15:19:18;5.84;96.91
68257;DHT22;55069;51.568;4.656;2024-02-26T15:21:44;5.82;97.16
68257;DHT22;55069;51.568;4.656;2024-02-26T15:24:10;5.84;96.67
68257;DHT22;55069;51.568;4.656;2024-02-26T15:26:41;5.84;97.32
68257;DHT22;55069;51.568;4.656;2024-02-26T15:29:07;5.84;97.26
68257;DHT22;55069;51.568;4.656;2024-02-26T15:31:34;5.90;97.31
68257;DHT22;55069;51.568;4.656;2024-02-26T15:34:00;5.90;97.19
68257;DHT22;55069;51.568;4.656;2024-02-26T15:36:25;5.88;97.40
68257;DHT22;55069;51.568;4.656;2024-02-26T15:38:51;5.90;96.98
68257;DHT22;55069;51.568;4.656;2024-02-26T15:41:16;5.91;96.95
68257;DHT22;55069;51.568;4.656;2024-02-26T15:43:42;5.88;97.36